sensor_id;sensor_type;location;lat;lon;timestamp;pressure;altitude;pressure_sealevel;temperature;humidity
69780;BME280;57052;55.602;38.096;2023-07-31T00:00:33;99510.75;;;17.65;67.38
69780;BME280;57052;55.602;38.096;2023-07-31T00:02:59;99517.34;;;17.64;67.32
69780;BME280;57052;55.602;38.096;2023-07-31T00:05:24;99512.22;;;17.63;67.59
69780;BME280;57052;55.602;38.096;2023-07-31T00:07:50;99506.78;;;17.54;67.80
69780;BME280;57052;55.602;38.096;2023-07-31T00:10:16;99513.22;;;17.58;67.90
69780;BME280;57052;55.602;38.096;2023-07-31T00:12:43;99492.66;;;17.44;68.26
69780;BME280;57052;55.602;38.096;2023-07-31T00:15:09;99512.25;;;17.54;68.26
69780;BME280;57052;55.602;38.096;2023-07-31T00:17:36;99491.19;;;17.46;67.58
69780;BME280;57052;55.602;38.096;2023-07-31T00:20:02;99516.63;;;17.55;67.89
69780;BME280;57052;55.602;38.096;2023-07-31T00:22:29;99519.66;;;17.54;67.72
69780;BME280;57052;55.602;38.096;2023-07-31T00:24:56;99519.66;;;17.54;68.05
69780;BME280;57052;55.602;38.096;2023-07-31T00:27:22;99511.16;;;17.55;67.86
69780;BME280;57052;55.602;38.096;2023-07-31T00:29:48;99512.25;;;17.54;68.15
69780;BME280;57052;55.602;38.096;2023-07-31T00:32:13;99517.44;;;17.56;67.47
69780;BME280;57052;55.602;38.096;2023-07-31T00:34:39;99513.88;;;17.55;67.51
69780;BME280;57052;55.602;38.096;2023-07-31T00:37:05;99514.19;;;17.54;67.71
69780;BME280;57052;55.602;38.096;2023-07-31T00:39:31;99516.44;;;17.52;67.78
69780;BME280;57052;55.602;38.096;2023-07-31T00:41:57;99511.31;;;17.50;67.49
69780;BME280;57052;55.602;38.096;2023-07-31T00:44:22;99502.34;;;17.41;67.33
69780;BME280;57052;55.602;38.096;2023-07-31T00:46:49;99515.81;;;17.46;67.53
69780;BME280;57052;55.602;38.096;2023-07-31T00:49:15;99513.44;;;17.45;67.77
69780;BME280;57052;55.602;38.096;2023-07-31T00:51:41;99505.56;;;17.43;67.95
69780;BME280;57052;55.602;38.096;2023-07-31T00:54:07;99514.25;;;17.45;68.04
69780;BME280;57052;55.602;38.096;2023-07-31T00:56:33;99511.81;;;17.44;68.20
69780;BME280;57052;55.602;38.096;2023-07-31T00:58:59;99515.38;;;17.44;68.16
69780;BME280;57052;55.602;38.096;2023-07-31T01:01:24;99512.50;;;17.41;67.93
69780;BME280;57052;55.602;38.096;2023-07-31T01:03:51;99508.34;;;17.35;67.97
69780;BME280;57052;55.602;38.096;2023-07-31T01:06:53;99511.31;;;17.21;68.65
69780;BME280;57052;55.602;38.096;2023-07-31T01:11:57;99520.84;;;17.15;68.68
69780;BME280;57052;55.602;38.096;2023-07-31T01:14:25;99524.72;;;17.14;68.35
69780;BME280;57052;55.602;38.096;2023-07-31T01:16:51;99521.50;;;17.12;68.33
69780;BME280;57052;55.602;38.096;2023-07-31T01:19:20;99511.41;;;17.04;68.94
69780;BME280;57052;55.602;38.096;2023-07-31T01:24:59;99513.88;;;16.97;69.34
69780;BME280;57052;55.602;38.096;2023-07-31T01:27:35;99521.03;;;17.10;68.83
69780;BME280;57052;55.602;38.096;2023-07-31T01:30:25;99512.09;;;17.01;69.49
69780;BME280;57052;55.602;38.096;2023-07-31T01:32:53;99512.50;;;17.11;68.79
69780;BME280;57052;55.602;38.096;2023-07-31T01:35:20;99509.75;;;17.11;68.65
69780;BME280;57052;55.602;38.096;2023-07-31T01:37:45;99521.03;;;17.10;68.56
69780;BME280;57052;55.602;38.096;2023-07-31T01:40:11;99519.44;;;17.09;68.45
69780;BME280;57052;55.602;38.096;2023-07-31T01:42:37;99517.84;;;17.08;68.76
69780;BME280;57052;55.602;38.096;2023-07-31T01:45:02;99515.75;;;17.05;68.78
69780;BME280;57052;55.602;38.096;2023-07-31T01:47:30;99522.84;;;17.06;68.62
69780;BME280;57052;55.602;38.096;2023-07-31T01:49:55;99527.03;;;17.03;68.68
69780;BME280;57052;55.602;38.096;2023-07-31T01:52:21;99528.81;;;16.99;68.66
69780;BME280;57052;55.602;38.096;2023-07-31T01:54:47;99529.97;;;16.98;68.59
69780;BME280;57052;55.602;38.096;2023-07-31T01:57:12;99526.25;;;16.94;68.83
69780;BME280;57052;55.602;38.096;2023-07-31T01:59:38;99515.38;;;16.86;68.90
69780;BME280;57052;55.602;38.096;2023-07-31T02:02:04;99525.94;;;16.96;69.02
69780;BME280;57052;55.602;38.096;2023-07-31T02:04:30;99524.50;;;16.98;69.15
69780;BME280;57052;55.602;38.096;2023-07-31T02:06:55;99516.78;;;16.92;68.78
69780;BME280;57052;55.602;38.096;2023-07-31T02:09:21;99511.50;;;16.87;68.67
69780;BME280;57052;55.602;38.096;2023-07-31T02:11:46;99518.41;;;16.93;69.02
69780;BME280;57052;55.602;38.096;2023-07-31T02:14:12;99523.22;;;16.87;69.07
69780;BME280;57052;55.602;38.096;2023-07-31T02:16:38;99534.78;;;16.93;68.95
69780;BME280;57052;55.602;38.096;2023-07-31T02:19:04;99525.78;;;16.92;68.98
69780;BME280;57052;55.602;38.096;2023-07-31T02:21:29;99527.72;;;16.92;69.22
69780;BME280;57052;55.602;38.096;2023-07-31T02:23:55;99525.78;;;16.92;69.20
69780;BME280;57052;55.602;38.096;2023-07-31T02:26:21;99530.44;;;16.92;69.00
69780;BME280;57052;55.602;38.096;2023-07-31T02:28:46;99526.44;;;16.89;69.48
69780;BME280;57052;55.602;38.096;2023-07-31T02:31:12;99538.19;;;16.90;69.00
69780;BME280;57052;55.602;38.096;2023-07-31T02:33:37;99532.72;;;16.90;69.62
69780;BME280;57052;55.602;38.096;2023-07-31T02:36:03;99529.63;;;16.91;69.68
69780;BME280;57052;55.602;38.096;2023-07-31T02:38:29;99529.50;;;16.88;69.54
69780;BME280;57052;55.602;38.096;2023-07-31T02:40:55;99534.97;;;16.88;69.70
69780;BME280;57052;55.602;38.096;2023-07-31T02:43:20;99533.38;;;16.87;69.81
69780;BME280;57052;55.602;38.096;2023-07-31T02:45:51;99528.69;;;16.87;70.00
69780;BME280;57052;55.602;38.096;2023-07-31T02:48:17;99533.19;;;16.92;69.58
69780;BME280;57052;55.602;38.096;2023-07-31T02:50:42;99534.47;;;16.94;69.57
69780;BME280;57052;55.602;38.096;2023-07-31T02:53:08;99531.06;;;16.97;69.58
69780;BME280;57052;55.602;38.096;2023-07-31T02:55:34;99529.16;;;16.98;69.21
69780;BME280;57052;55.602;38.096;2023-07-31T02:57:59;99528.00;;;16.99;69.39
69780;BME280;57052;55.602;38.096;2023-07-31T03:00:25;99533.97;;;17.01;69.38
69780;BME280;57052;55.602;38.096;2023-07-31T03:02:51;99535.25;;;17.03;69.45
69780;BME280;57052;55.602;38.096;2023-07-31T03:05:16;99523.34;;;16.99;69.69
69780;BME280;57052;55.602;38.096;2023-07-31T03:07:42;99529.59;;;17.08;69.44
69780;BME280;57052;55.602;38.096;2023-07-31T03:10:08;99513.03;;;17.05;69.26
69780;BME280;57052;55.602;38.096;2023-07-31T03:12:34;99505.94;;;17.04;69.14
69780;BME280;57052;55.602;38.096;2023-07-31T03:14:59;99513.00;;;17.13;69.60
69780;BME280;57052;55.602;38.096;2023-07-31T03:17:25;99517.47;;;17.18;69.24
69780;BME280;57052;55.602;38.096;2023-07-31T03:19:51;99516.00;;;17.20;69.38
69780;BME280;57052;55.602;38.096;2023-07-31T03:22:16;99513.38;;;17.24;69.48
69780;BME280;57052;55.602;38.096;2023-07-31T03:24:42;99517.41;;;17.26;69.36
69780;BME280;57052;55.602;38.096;2023-07-31T03:27:07;99514.81;;;17.30;69.45
69780;BME280;57052;55.602;38.096;2023-07-31T03:29:33;99516.91;;;17.33;69.56
69780;BME280;57052;55.602;38.096;2023-07-31T03:31:59;99518.16;;;17.36;69.52
69780;BME280;57052;55.602;38.096;2023-07-31T03:34:24;99525.22;;;17.37;69.60
69780;BME280;57052;55.602;38.096;2023-07-31T03:36:50;99533.78;;;17.35;69.75
69780;BME280;57052;55.602;38.096;2023-07-31T03:39:16;99527.78;;;17.42;69.44
69780;BME280;57052;55.602;38.096;2023-07-31T03:41:41;99527.91;;;17.45;69.44
69780;BME280;57052;55.602;38.096;2023-07-31T03:44:07;99525.31;;;17.49;69.53
69780;BME280;57052;55.602;38.096;2023-07-31T03:46:33;99525.00;;;17.50;69.29
69780;BME280;57052;55.602;38.096;2023-07-31T03:48:59;99526.75;;;17.55;69.62
69780;BME280;57052;55.602;38.096;2023-07-31T03:51:25;99517.72;;;17.54;69.61
69780;BME280;57052;55.602;38.096;2023-07-31T03:53:51;99518.50;;;17.63;69.51
69780;BME280;57052;55.602;38.096;2023-07-31T03:56:16;99520.53;;;17.66;69.47
69780;BME280;57052;55.602;38.096;2023-07-31T03:58:42;99477.06;;;17.44;69.14
69780;BME280;57052;55.602;38.096;2023-07-31T04:01:08;99524.50;;;17.77;69.12
69780;BME280;57052;55.602;38.096;2023-07-31T04:03:34;99519.63;;;17.83;68.81
69780;BME280;57052;55.602;38.096;2023-07-31T04:05:59;99516.34;;;17.89;68.58
69780;BME280;57052;55.602;38.096;2023-07-31T04:08:25;99518.88;;;17.94;68.44
69780;BME280;57052;55.602;38.096;2023-07-31T04:10:51;99519.13;;;18.02;68.33
69780;BME280;57052;55.602;38.096;2023-07-31T04:13:16;99516.19;;;18.07;68.08
69780;BME280;57052;55.602;38.096;2023-07-31T04:15:42;99521.13;;;18.13;67.84
69780;BME280;57052;55.602;38.096;2023-07-31T04:18:08;99522.19;;;18.21;67.78
69780;BME280;57052;55.602;38.096;2023-07-31T04:20:33;99521.84;;;18.22;67.90
69780;BME280;57052;55.602;38.096;2023-07-31T04:22:59;99523.34;;;18.32;67.82
69780;BME280;57052;55.602;38.096;2023-07-31T04:25:25;99528.63;;;18.37;67.80
69780;BME280;57052;55.602;38.096;2023-07-31T04:27:50;99531.16;;;18.42;67.90
69780;BME280;57052;55.602;38.096;2023-07-31T04:30:16;99533.38;;;18.48;68.05
69780;BME280;57052;55.602;38.096;2023-07-31T04:32:42;99532.47;;;18.56;68.01
69780;BME280;57052;55.602;38.096;2023-07-31T04:35:07;99525.06;;;18.57;67.85
69780;BME280;57052;55.602;38.096;2023-07-31T04:37:33;99528.03;;;18.64;68.13
69780;BME280;57052;55.602;38.096;2023-07-31T04:39:59;99523.50;;;18.68;68.32
69780;BME280;57052;55.602;38.096;2023-07-31T04:42:25;99541.09;;;18.79;68.04
69780;BME280;57052;55.602;38.096;2023-07-31T04:44:50;99539.06;;;18.88;68.09
69780;BME280;57052;55.602;38.096;2023-07-31T04:47:18;99533.47;;;18.97;67.87
69780;BME280;57052;55.602;38.096;2023-07-31T04:49:44;99541.59;;;19.05;67.76
69780;BME280;57052;55.602;38.096;2023-07-31T04:52:09;99537.47;;;19.11;67.69
69780;BME280;57052;55.602;38.096;2023-07-31T04:54:35;99537.72;;;19.18;67.55
69780;BME280;57052;55.602;38.096;2023-07-31T04:57:01;99537.34;;;19.20;67.30
69780;BME280;57052;55.602;38.096;2023-07-31T04:59:26;99542.38;;;19.30;66.96
69780;BME280;57052;55.602;38.096;2023-07-31T05:01:52;99536.66;;;19.35;66.99
69780;BME280;57052;55.602;38.096;2023-07-31T05:04:17;99537.72;;;19.43;66.81
69780;BME280;57052;55.602;38.096;2023-07-31T05:06:43;99534.75;;;19.48;66.69
69780;BME280;57052;55.602;38.096;2023-07-31T05:09:09;99530.50;;;19.50;66.27
69780;BME280;57052;55.602;38.096;2023-07-31T05:11:35;99546.16;;;19.62;65.74
69780;BME280;57052;55.602;38.096;2023-07-31T05:14:01;99514.59;;;19.56;65.17
69780;BME280;57052;55.602;38.096;2023-07-31T05:16:26;99541.63;;;19.81;64.91
69780;BME280;57052;55.602;38.096;2023-07-31T05:18:52;99540.38;;;19.91;64.22
69780;BME280;57052;55.602;38.096;2023-07-31T05:21:18;99546.53;;;20.00;63.20
69780;BME280;57052;55.602;38.096;2023-07-31T05:23:43;99540.09;;;20.08;63.49
69780;BME280;57052;55.602;38.096;2023-07-31T05:26:09;99545.78;;;20.15;63.37
69780;BME280;57052;55.602;38.096;2023-07-31T05:28:36;99528.16;;;20.16;63.45
69780;BME280;57052;55.602;38.096;2023-07-31T05:31:03;99544.25;;;20.30;63.17
69780;BME280;57052;55.602;38.096;2023-07-31T05:33:29;99533.72;;;20.32;63.36
69780;BME280;57052;55.602;38.096;2023-07-31T05:35:55;99545.81;;;20.43;63.24
69780;BME280;57052;55.602;38.096;2023-07-31T05:38:21;99538.13;;;20.49;62.78
69780;BME280;57052;55.602;38.096;2023-07-31T05:40:47;99531.09;;;20.51;62.48
69780;BME280;57052;55.602;38.096;2023-07-31T05:43:13;99540.34;;;20.59;62.16
69780;BME280;57052;55.602;38.096;2023-07-31T05:45:38;99546.09;;;20.69;62.25
69780;BME280;57052;55.602;38.096;2023-07-31T05:48:05;99551.72;;;20.73;61.94
69780;BME280;57052;55.602;38.096;2023-07-31T05:50:34;99535.66;;;20.75;61.39
69780;BME280;57052;55.602;38.096;2023-07-31T05:52:59;99548.97;;;20.88;61.19
69780;BME280;57052;55.602;38.096;2023-07-31T05:55:25;99549.53;;;20.94;60.99
69780;BME280;57052;55.602;38.096;2023-07-31T05:57:54;99545.16;;;20.93;60.74
69780;BME280;57052;55.602;38.096;2023-07-31T06:00:20;99549.47;;;21.06;60.05
69780;BME280;57052;55.602;38.096;2023-07-31T06:02:47;99552.38;;;21.13;59.58
69780;BME280;57052;55.602;38.096;2023-07-31T06:05:13;99543.16;;;21.21;58.50
69780;BME280;57052;55.602;38.096;2023-07-31T06:07:39;99546.94;;;21.32;57.85
69780;BME280;57052;55.602;38.096;2023-07-31T06:10:05;99542.78;;;21.38;57.55
69780;BME280;57052;55.602;38.096;2023-07-31T06:12:32;99542.22;;;21.48;57.43
69780;BME280;57052;55.602;38.096;2023-07-31T06:14:59;99551.00;;;21.54;57.16
69780;BME280;57052;55.602;38.096;2023-07-31T06:17:25;99538.47;;;21.56;56.77
69780;BME280;57052;55.602;38.096;2023-07-31T06:19:51;99548.13;;;21.66;57.03
69780;BME280;57052;55.602;38.096;2023-07-31T06:22:17;99545.91;;;21.71;56.05
69780;BME280;57052;55.602;38.096;2023-07-31T06:24:43;99548.38;;;21.77;56.09
69780;BME280;57052;55.602;38.096;2023-07-31T06:27:10;99548.44;;;21.80;55.83
69780;BME280;57052;55.602;38.096;2023-07-31T06:29:36;99551.75;;;21.86;55.38
69780;BME280;57052;55.602;38.096;2023-07-31T06:32:02;99538.13;;;21.93;54.71
69780;BME280;57052;55.602;38.096;2023-07-31T06:34:28;99541.00;;;22.00;54.90
69780;BME280;57052;55.602;38.096;2023-07-31T06:36:55;99539.88;;;22.01;54.33
69780;BME280;57052;55.602;38.096;2023-07-31T06:39:21;99537.97;;;22.05;53.86
69780;BME280;57052;55.602;38.096;2023-07-31T06:41:47;99547.63;;;22.14;52.85
69780;BME280;57052;55.602;38.096;2023-07-31T06:44:13;99553.28;;;22.21;52.42
69780;BME280;57052;55.602;38.096;2023-07-31T06:46:38;99531.53;;;22.16;51.81
69780;BME280;57052;55.602;38.096;2023-07-31T06:49:04;99533.19;;;22.21;51.86
69780;BME280;57052;55.602;38.096;2023-07-31T06:51:29;99551.63;;;22.36;51.45
69780;BME280;57052;55.602;38.096;2023-07-31T06:53:57;99553.69;;;22.43;51.19
69780;BME280;57052;55.602;38.096;2023-07-31T06:56:23;99550.31;;;22.49;50.32
69780;BME280;57052;55.602;38.096;2023-07-31T06:58:49;99558.28;;;22.54;50.39
69780;BME280;57052;55.602;38.096;2023-07-31T07:01:14;99539.41;;;22.56;49.51
69780;BME280;57052;55.602;38.096;2023-07-31T07:03:40;99553.03;;;22.68;49.52
69780;BME280;57052;55.602;38.096;2023-07-31T07:06:06;99558.63;;;22.72;48.68
69780;BME280;57052;55.602;38.096;2023-07-31T07:08:31;99562.31;;;22.79;48.60
69780;BME280;57052;55.602;38.096;2023-07-31T07:10:57;99560.03;;;22.85;48.51
69780;BME280;57052;55.602;38.096;2023-07-31T07:13:22;99549.81;;;22.85;48.33
69780;BME280;57052;55.602;38.096;2023-07-31T07:15:49;99552.69;;;22.92;47.89
69780;BME280;57052;55.602;38.096;2023-07-31T07:18:15;99558.34;;;23.00;47.24
69780;BME280;57052;55.602;38.096;2023-07-31T07:20:46;99552.06;;;23.03;44.88
69780;BME280;57052;55.602;38.096;2023-07-31T07:23:12;99556.19;;;23.12;46.46
69780;BME280;57052;55.602;38.096;2023-07-31T07:28:03;99550.72;;;23.16;46.62
69780;BME280;57052;55.602;38.096;2023-07-31T07:30:29;99561.13;;;23.26;46.26
69780;BME280;57052;55.602;38.096;2023-07-31T07:32:54;99563.97;;;23.29;45.71
69780;BME280;57052;55.602;38.096;2023-07-31T07:35:20;99564.09;;;23.36;45.58
69780;BME280;57052;55.602;38.096;2023-07-31T07:37:48;99556.31;;;23.42;45.02
69780;BME280;57052;55.602;38.096;2023-07-31T07:40:15;99561.13;;;23.48;45.64
69780;BME280;57052;55.602;38.096;2023-07-31T07:42:41;99554.88;;;23.51;45.10
69780;BME280;57052;55.602;38.096;2023-07-31T07:45:07;99551.00;;;23.56;44.41
69780;BME280;57052;55.602;38.096;2023-07-31T07:47:33;99555.81;;;23.63;44.76
69780;BME280;57052;55.602;38.096;2023-07-31T07:49:59;99556.63;;;23.63;44.32
69780;BME280;57052;55.602;38.096;2023-07-31T07:52:24;99555.13;;;23.69;44.36
69780;BME280;57052;55.602;38.096;2023-07-31T07:54:50;99565.47;;;23.76;44.33
69780;BME280;57052;55.602;38.096;2023-07-31T07:57:16;99563.53;;;23.76;44.51
69780;BME280;57052;55.602;38.096;2023-07-31T07:59:42;99554.50;;;23.79;43.58
69780;BME280;57052;55.602;38.096;2023-07-31T08:02:07;99560.84;;;23.83;43.33
69780;BME280;57052;55.602;38.096;2023-07-31T08:04:33;99556.59;;;23.89;43.36
69780;BME280;57052;55.602;38.096;2023-07-31T08:06:59;99548.31;;;23.89;43.64
69780;BME280;57052;55.602;38.096;2023-07-31T08:09:24;99561.84;;;23.98;43.64
69780;BME280;57052;55.602;38.096;2023-07-31T08:11:50;99559.53;;;24.03;43.48
69780;BME280;57052;55.602;38.096;2023-07-31T08:14:16;99563.19;;;24.07;42.81
69780;BME280;57052;55.602;38.096;2023-07-31T08:16:41;99558.84;;;24.10;42.58
69780;BME280;57052;55.602;38.096;2023-07-31T08:19:07;99569.59;;;24.15;42.32
69780;BME280;57052;55.602;38.096;2023-07-31T08:21:33;99566.06;;;24.14;41.82
69780;BME280;57052;55.602;38.096;2023-07-31T08:23:58;99568.09;;;24.21;41.55
69780;BME280;57052;55.602;38.096;2023-07-31T08:26:24;99561.81;;;24.24;41.69
69780;BME280;57052;55.602;38.096;2023-07-31T08:28:50;99563.44;;;24.29;41.29
69780;BME280;57052;55.602;38.096;2023-07-31T08:31:15;99567.03;;;24.33;40.95
69780;BME280;57052;55.602;38.096;2023-07-31T08:33:41;99573.84;;;24.39;41.04
69780;BME280;57052;55.602;38.096;2023-07-31T08:36:07;99570.69;;;24.40;40.72
69780;BME280;57052;55.602;38.096;2023-07-31T08:38:33;99569.13;;;24.43;40.63
69780;BME280;57052;55.602;38.096;2023-07-31T08:40:58;99570.00;;;24.50;40.33
69780;BME280;57052;55.602;38.096;2023-07-31T08:43:27;99570.47;;;24.56;39.32
69780;BME280;57052;55.602;38.096;2023-07-31T08:45:53;99568.97;;;24.62;40.98
69780;BME280;57052;55.602;38.096;2023-07-31T08:48:21;99567.84;;;24.66;39.65
69780;BME280;57052;55.602;38.096;2023-07-31T08:50:47;99563.91;;;24.71;39.70
69780;BME280;57052;55.602;38.096;2023-07-31T08:53:13;99573.09;;;24.75;39.55
69780;BME280;57052;55.602;38.096;2023-07-31T08:55:40;99568.41;;;24.79;38.99
69780;BME280;57052;55.602;38.096;2023-07-31T08:58:05;99574.00;;;24.86;39.52
69780;BME280;57052;55.602;38.096;2023-07-31T09:00:32;99574.75;;;24.83;38.74
69780;BME280;57052;55.602;38.096;2023-07-31T09:03:03;99581.13;;;24.87;38.38
69780;BME280;57052;55.602;38.096;2023-07-31T09:05:30;99576.41;;;24.91;38.73
69780;BME280;57052;55.602;38.096;2023-07-31T09:07:57;99570.94;;;24.95;38.75
69780;BME280;57052;55.602;38.096;2023-07-31T09:10:23;99576.13;;;25.00;38.43
69780;BME280;57052;55.602;38.096;2023-07-31T09:12:51;99574.97;;;25.04;37.64
69780;BME280;57052;55.602;38.096;2023-07-31T09:15:17;99569.06;;;25.09;37.88
69780;BME280;57052;55.602;38.096;2023-07-31T09:17:43;99565.19;;;25.17;38.04
69780;BME280;57052;55.602;38.096;2023-07-31T09:20:20;99577.16;;;25.28;36.33
69780;BME280;57052;55.602;38.096;2023-07-31T09:22:47;99570.19;;;25.45;38.31
69780;BME280;57052;55.602;38.096;2023-07-31T09:25:22;99571.06;;;25.53;36.43
69780;BME280;57052;55.602;38.096;2023-07-31T09:27:54;99565.94;;;25.62;37.34
69780;BME280;57052;55.602;38.096;2023-07-31T09:30:21;99577.03;;;25.62;37.37
69780;BME280;57052;55.602;38.096;2023-07-31T09:32:48;99549.28;;;25.55;37.37
69780;BME280;57052;55.602;38.096;2023-07-31T09:35:27;99558.88;;;25.71;36.45
69780;BME280;57052;55.602;38.096;2023-07-31T09:37:58;99560.19;;;25.91;37.57
69780;BME280;57052;55.602;38.096;2023-07-31T09:42:57;99559.53;;;26.16;34.63
69780;BME280;57052;55.602;38.096;2023-07-31T09:45:24;99561.94;;;26.21;35.75
69780;BME280;57052;55.602;38.096;2023-07-31T09:47:50;99563.56;;;26.29;35.59
69780;BME280;57052;55.602;38.096;2023-07-31T09:50:16;99544.56;;;26.34;35.05
69780;BME280;57052;55.602;38.096;2023-07-31T09:52:42;99561.66;;;26.50;35.71
69780;BME280;57052;55.602;38.096;2023-07-31T09:55:09;99568.44;;;26.60;35.19
69780;BME280;57052;55.602;38.096;2023-07-31T09:57:41;99567.72;;;26.77;34.58
69780;BME280;57052;55.602;38.096;2023-07-31T10:00:09;99572.84;;;26.79;35.13
69780;BME280;57052;55.602;38.096;2023-07-31T10:02:36;99571.28;;;26.88;35.55
69780;BME280;57052;55.602;38.096;2023-07-31T10:05:04;99573.69;;;26.97;35.41
69780;BME280;57052;55.602;38.096;2023-07-31T10:07:31;99565.34;;;27.04;35.61
69780;BME280;57052;55.602;38.096;2023-07-31T10:10:00;99565.78;;;27.20;34.91
69780;BME280;57052;55.602;38.096;2023-07-31T10:12:26;99554.25;;;27.28;34.82
69780;BME280;57052;55.602;38.096;2023-07-31T10:14:56;99561.81;;;27.53;34.84
69780;BME280;57052;55.602;38.096;2023-07-31T10:17:22;99537.16;;;27.51;35.02
69780;BME280;57052;55.602;38.096;2023-07-31T10:19:49;99549.84;;;27.73;34.72
69780;BME280;57052;55.602;38.096;2023-07-31T10:22:16;99568.88;;;27.92;33.61
69780;BME280;57052;55.602;38.096;2023-07-31T10:24:48;99565.31;;;28.03;30.48
69780;BME280;57052;55.602;38.096;2023-07-31T10:27:14;99569.25;;;28.09;33.47
69780;BME280;57052;55.602;38.096;2023-07-31T10:29:41;99567.66;;;28.15;32.93
69780;BME280;57052;55.602;38.096;2023-07-31T10:32:09;99551.38;;;28.13;32.88
69780;BME280;57052;55.602;38.096;2023-07-31T10:34:39;99565.63;;;28.19;31.27
69780;BME280;57052;55.602;38.096;2023-07-31T10:37:29;99558.91;;;28.13;32.17
69780;BME280;57052;55.602;38.096;2023-07-31T10:40:26;99565.31;;;27.95;30.42
69780;BME280;57052;55.602;38.096;2023-07-31T10:42:53;99564.91;;;27.90;32.78
69780;BME280;57052;55.602;38.096;2023-07-31T10:48:00;99556.94;;;27.99;33.57
69780;BME280;57052;55.602;38.096;2023-07-31T10:50:27;99553.75;;;28.08;33.78
69780;BME280;57052;55.602;38.096;2023-07-31T10:52:57;99558.81;;;28.37;33.46
69780;BME280;57052;55.602;38.096;2023-07-31T10:55:41;99559.06;;;28.64;31.11
69780;BME280;57052;55.602;38.096;2023-07-31T10:58:09;99545.84;;;28.82;31.66
69780;BME280;57052;55.602;38.096;2023-07-31T11:00:40;99543.22;;;29.12;31.98
69780;BME280;57052;55.602;38.096;2023-07-31T11:03:12;99542.13;;;29.51;31.28
69780;BME280;57052;55.602;38.096;2023-07-31T11:08:23;99541.06;;;30.12;30.73
69780;BME280;57052;55.602;38.096;2023-07-31T11:13:39;99538.72;;;30.71;29.97
69780;BME280;57052;55.602;38.096;2023-07-31T11:16:05;99531.91;;;30.99;29.89
69780;BME280;57052;55.602;38.096;2023-07-31T11:18:31;99540.31;;;31.22;30.08
69780;BME280;57052;55.602;38.096;2023-07-31T11:20:56;99537.47;;;31.26;29.21
69780;BME280;57052;55.602;38.096;2023-07-31T11:23:22;99542.00;;;31.39;29.33
69780;BME280;57052;55.602;38.096;2023-07-31T11:25:49;99527.06;;;31.49;28.95
69780;BME280;57052;55.602;38.096;2023-07-31T11:28:16;99527.97;;;31.66;28.84
69780;BME280;57052;55.602;38.096;2023-07-31T11:30:43;99530.94;;;31.79;28.55
69780;BME280;57052;55.602;38.096;2023-07-31T11:33:12;99537.53;;;31.88;28.15
69780;BME280;57052;55.602;38.096;2023-07-31T11:35:56;99532.75;;;31.89;27.08
69780;BME280;57052;55.602;38.096;2023-07-31T11:38:29;99523.97;;;31.87;27.53
69780;BME280;57052;55.602;38.096;2023-07-31T11:41:03;99525.72;;;32.00;27.14
69780;BME280;57052;55.602;38.096;2023-07-31T11:43:30;99532.47;;;32.03;28.04
69780;BME280;57052;55.602;38.096;2023-07-31T11:45:57;99537.84;;;31.94;28.88
69780;BME280;57052;55.602;38.096;2023-07-31T11:50:51;99538.22;;;31.53;28.88
69780;BME280;57052;55.602;38.096;2023-07-31T11:53:19;99529.78;;;31.30;28.83
69780;BME280;57052;55.602;38.096;2023-07-31T11:55:46;99538.97;;;31.07;28.93
69780;BME280;57052;55.602;38.096;2023-07-31T11:58:13;99541.03;;;30.76;29.42
69780;BME280;57052;55.602;38.096;2023-07-31T12:00:40;99542.50;;;30.58;30.18
69780;BME280;57052;55.602;38.096;2023-07-31T12:03:06;99543.19;;;30.35;30.26
69780;BME280;57052;55.602;38.096;2023-07-31T12:05:32;99543.56;;;30.37;30.53
69780;BME280;57052;55.602;38.096;2023-07-31T12:07:57;99542.00;;;30.36;30.41
69780;BME280;57052;55.602;38.096;2023-07-31T12:10:29;99547.53;;;30.06;29.94
69780;BME280;57052;55.602;38.096;2023-07-31T12:15:32;99551.59;;;30.01;31.09
69780;BME280;57052;55.602;38.096;2023-07-31T12:17:58;99542.19;;;29.84;31.13
69780;BME280;57052;55.602;38.096;2023-07-31T12:20:24;99545.47;;;29.72;31.02
69780;BME280;57052;55.602;38.096;2023-07-31T12:22:50;99552.84;;;29.52;31.41
69780;BME280;57052;55.602;38.096;2023-07-31T12:25:16;99556.47;;;29.49;31.77
69780;BME280;57052;55.602;38.096;2023-07-31T12:27:44;99553.38;;;29.37;31.70
69780;BME280;57052;55.602;38.096;2023-07-31T12:30:27;99553.09;;;29.24;31.63
69780;BME280;57052;55.602;38.096;2023-07-31T12:32:53;99561.88;;;29.19;32.48
69780;BME280;57052;55.602;38.096;2023-07-31T12:35:18;99561.97;;;29.08;32.83
69780;BME280;57052;55.602;38.096;2023-07-31T12:37:44;99562.31;;;29.21;33.19
69780;BME280;57052;55.602;38.096;2023-07-31T12:40:10;99556.97;;;29.37;33.28
69780;BME280;57052;55.602;38.096;2023-07-31T12:42:36;99566.97;;;29.35;32.74
69780;BME280;57052;55.602;38.096;2023-07-31T12:45:02;99561.38;;;29.35;33.29
69780;BME280;57052;55.602;38.096;2023-07-31T12:47:30;99558.69;;;29.24;32.96
69780;BME280;57052;55.602;38.096;2023-07-31T12:49:56;99553.63;;;29.08;33.09
69780;BME280;57052;55.602;38.096;2023-07-31T12:52:21;99565.53;;;29.12;33.50
69780;BME280;57052;55.602;38.096;2023-07-31T12:54:47;99559.94;;;29.12;34.01
69780;BME280;57052;55.602;38.096;2023-07-31T12:57:13;99530.63;;;28.94;33.41
69780;BME280;57052;55.602;38.096;2023-07-31T12:59:38;99529.41;;;28.98;33.72
69780;BME280;57052;55.602;38.096;2023-07-31T13:02:05;99559.84;;;29.27;33.66
69780;BME280;57052;55.602;38.096;2023-07-31T13:04:30;99558.66;;;29.28;33.75
69780;BME280;57052;55.602;38.096;2023-07-31T13:06:56;99552.34;;;29.24;33.32
69780;BME280;57052;55.602;38.096;2023-07-31T13:09:22;99560.69;;;29.16;33.50
69780;BME280;57052;55.602;38.096;2023-07-31T13:11:47;99565.16;;;29.07;33.18